Chelsea, United Kingdom
Current Conditions -  °F | °C
As of 11:20 AM on Friday 24 Oct 2014 (Local Time) from EGLC Reporting Station
Broken Clouds Broken Clouds  
Wind Chill: 16°   Ceiling: 1200
Heat Index: 16°   Visibility: 6mi
Dew Point: 13°   Wind: 9mph
Humidity: 82%   Direction: 230°SW
Pressure: 29.97"   Gusts: NA
Location:  51.49°N, 0.17°W
Report Text: EGLC 241020Z 23008KT 9999 BKN012 BKN018 16/13 Q1015
Loading
Personal Weather Stations






























Interactive Weather Map
Tropical Storm Tracking
New forecast layout! Learn more

10-Day Weather Forecast

Advertisements
Track Severe Weather on mobile